createdAt,value
2023-04-13T00:00:48.797Z,6.9
2023-04-13T00:01:55.946Z,6.9
2023-04-13T00:03:03.027Z,6.9
2023-04-13T00:04:09.920Z,6.9
2023-04-13T00:05:16.750Z,6.9
2023-04-13T00:06:23.485Z,6.9
2023-04-13T00:07:30.413Z,6.9
2023-04-13T00:08:37.301Z,6.9
2023-04-13T00:09:44.122Z,6.9
2023-04-13T00:10:50.952Z,6.9
2023-04-13T00:11:57.813Z,6.9
2023-04-13T00:13:04.689Z,6.9
2023-04-13T00:14:11.537Z,6.9
2023-04-13T00:15:18.423Z,6.8
2023-04-13T00:16:25.370Z,6.8
2023-04-13T00:17:32.237Z,6.7
2023-04-13T00:18:39.927Z,6.7
2023-04-13T00:19:46.866Z,6.7
2023-04-13T00:20:53.690Z,6.6
2023-04-13T00:22:00.651Z,6.7
2023-04-13T00:23:07.465Z,6.6
2023-04-13T00:24:14.359Z,6.6
2023-04-13T00:25:21.262Z,6.6
2023-04-13T00:26:28.189Z,6.6
2023-04-13T00:27:35.109Z,6.6
2023-04-13T00:28:44.913Z,6.6
2023-04-13T00:29:51.792Z,6.5
2023-04-13T00:30:58.769Z,6.6
2023-04-13T00:32:05.777Z,6.5
2023-04-13T00:33:13.214Z,6.5
2023-04-13T00:34:20.148Z,6.5
2023-04-13T00:35:27.371Z,6.4
2023-04-13T00:36:37.548Z,6.4
2023-04-13T00:37:44.631Z,6.5
2023-04-13T00:38:51.965Z,6.5
2023-04-13T00:39:59.168Z,6.4
2023-04-13T00:41:06.399Z,6.5
2023-04-13T00:42:13.666Z,6.5
2023-04-13T00:43:22.402Z,6.5
2023-04-13T00:44:29.604Z,6.5
2023-04-13T00:45:37.830Z,6.6
2023-04-13T00:46:45.663Z,6.5
2023-04-13T00:47:52.971Z,6.5
2023-04-13T00:48:59.812Z,6.5
2023-04-13T00:50:07.052Z,6.5
2023-04-13T00:51:14.088Z,6.6
2023-04-13T00:52:21.163Z,6.6
2023-04-13T00:53:29.468Z,6.6
2023-04-13T00:54:36.549Z,6.6
2023-04-13T00:55:43.807Z,6.6
2023-04-13T00:56:51.555Z,6.6
2023-04-13T00:57:58.988Z,6.6
2023-04-13T00:59:06.392Z,6.6
2023-04-13T01:00:16.329Z,6.5
2023-04-13T01:01:24.005Z,6.6
2023-04-13T01:02:31.676Z,6.6
2023-04-13T01:03:38.887Z,6.6
2023-04-13T01:04:45.946Z,6.7
2023-04-13T01:05:53.023Z,6.7
2023-04-13T01:07:10.204Z,6.7
2023-04-13T01:08:26.607Z,6.8
2023-04-13T01:09:34.086Z,6.8
2023-04-13T01:10:48.982Z,6.8
2023-04-13T01:11:59.083Z,6.8
2023-04-13T01:13:06.675Z,6.8
2023-04-13T01:14:14.167Z,6.9
2023-04-13T01:15:26.471Z,6.9
2023-04-13T01:16:33.580Z,6.9
2023-04-13T01:17:43.741Z,6.9
2023-04-13T01:18:51.075Z,6.9
2023-04-13T01:19:58.079Z,6.9
2023-04-13T01:21:10.631Z,6.9
2023-04-13T01:22:18.300Z,7
2023-04-13T01:23:25.463Z,7
2023-04-13T01:24:40.619Z,7
2023-04-13T01:25:53.492Z,7.1
2023-04-13T01:27:03.219Z,7.1
2023-04-13T01:28:10.335Z,7.1
2023-04-13T01:29:19.882Z,7.1
2023-04-13T01:30:26.905Z,7
2023-04-13T01:31:35.052Z,7
2023-04-13T01:32:42.266Z,7
2023-04-13T01:33:49.550Z,7.1
2023-04-13T01:34:56.760Z,7.1
2023-04-13T01:36:03.779Z,7.1
2023-04-13T01:37:12.148Z,7.1
2023-04-13T01:38:19.087Z,6.9
2023-04-13T01:39:26.030Z,7
2023-04-13T01:40:32.979Z,7.1
2023-04-13T01:41:42.822Z,7.1
2023-04-13T01:42:49.895Z,7
2023-04-13T01:43:57.151Z,7
2023-04-13T01:45:03.993Z,7
2023-04-13T01:46:17.136Z,7
2023-04-13T01:47:24.076Z,7
2023-04-13T01:48:31.241Z,7
2023-04-13T01:49:38.067Z,7
2023-04-13T01:50:45.128Z,7
2023-04-13T01:51:52.403Z,7
2023-04-13T01:52:59.260Z,7
2023-04-13T01:54:14.655Z,7
2023-04-13T01:55:21.840Z,7
2023-04-13T01:56:28.699Z,7
2023-04-13T01:57:35.663Z,7
2023-04-13T01:58:42.499Z,7
2023-04-13T01:59:49.389Z,6.8
2023-04-13T02:00:56.616Z,6.8
2023-04-13T02:02:03.414Z,6.9
2023-04-13T02:03:10.430Z,6.9
2023-04-13T02:04:17.516Z,6.9
2023-04-13T02:05:24.371Z,6.9
2023-04-13T02:06:32.160Z,6.8
2023-04-13T02:07:38.995Z,6.8
2023-04-13T02:08:46.087Z,6.8
2023-04-13T02:09:52.891Z,6.8
2023-04-13T02:10:59.710Z,6.8
2023-04-13T02:12:06.690Z,6.7
2023-04-13T02:13:13.768Z,6.7
2023-04-13T02:14:20.791Z,6.7
2023-04-13T02:15:27.693Z,6.7
2023-04-13T02:16:34.614Z,6.8
2023-04-13T02:17:41.546Z,6.7
2023-04-13T02:18:48.479Z,6.8
2023-04-13T02:19:56.368Z,6.8
2023-04-13T02:21:03.266Z,6.7
2023-04-13T02:22:13.201Z,6.7
2023-04-13T02:23:19.999Z,6.7
2023-04-13T02:24:26.822Z,6.7
2023-04-13T02:25:33.968Z,6.7
2023-04-13T02:26:41.032Z,6.6
2023-04-13T02:27:47.863Z,6.6
2023-04-13T02:28:54.938Z,6.6
2023-04-13T02:30:03.700Z,6.6
2023-04-13T02:31:11.054Z,6.5
2023-04-13T02:32:17.887Z,6.5
2023-04-13T02:33:24.736Z,6.5
2023-04-13T02:34:31.593Z,6.5
2023-04-13T02:35:38.499Z,6.5
2023-04-13T02:36:45.313Z,6.5
2023-04-13T02:37:52.094Z,6.4
2023-04-13T02:38:58.984Z,6.4
2023-04-13T02:40:05.840Z,6.4
2023-04-13T02:41:12.792Z,6.4
2023-04-13T02:42:19.598Z,6.3
2023-04-13T02:43:26.496Z,6.4
2023-04-13T02:44:33.383Z,6.3
2023-04-13T02:45:42.786Z,6.3
2023-04-13T02:46:49.549Z,6.3
2023-04-13T02:47:56.383Z,6.3
2023-04-13T02:49:03.146Z,6.3
2023-04-13T02:50:09.970Z,6.2
2023-04-13T02:51:16.891Z,6.2
2023-04-13T02:52:23.760Z,6.1
2023-04-13T02:53:30.588Z,6.1
2023-04-13T02:54:37.408Z,6.1
2023-04-13T02:55:44.269Z,6.1
2023-04-13T02:56:51.193Z,6.1
2023-04-13T02:57:58.087Z,6.1
2023-04-13T02:59:04.944Z,6.1
2023-04-13T03:00:11.791Z,6.1
2023-04-13T03:01:18.800Z,6
2023-04-13T03:02:25.803Z,6.1
2023-04-13T03:03:32.603Z,6.1
2023-04-13T03:04:39.694Z,6.1
2023-04-13T03:05:46.428Z,6.1
2023-04-13T03:06:56.392Z,6.1
2023-04-13T03:08:03.306Z,6.1
2023-04-13T03:09:10.409Z,6.1
2023-04-13T03:10:17.388Z,6.1
2023-04-13T03:11:24.553Z,6
2023-04-13T03:12:31.411Z,6
2023-04-13T03:13:38.262Z,6
2023-04-13T03:14:46.168Z,6
2023-04-13T03:15:53.144Z,6.1
2023-04-13T03:17:00.127Z,6.1
2023-04-13T03:18:07.078Z,6.1
2023-04-13T03:19:13.827Z,6.1
2023-04-13T03:20:21.491Z,6.1
2023-04-13T03:21:28.487Z,6.1
2023-04-13T03:22:35.520Z,6.1
2023-04-13T03:23:42.405Z,6.1
2023-04-13T03:24:49.265Z,6.1
2023-04-13T03:25:56.112Z,6.2
2023-04-13T03:27:02.902Z,6.2
2023-04-13T03:28:09.964Z,6.2
2023-04-13T03:29:16.850Z,6.2
2023-04-13T03:30:23.715Z,6.2
2023-04-13T03:31:30.708Z,6.2
2023-04-13T03:32:37.358Z,6.2
2023-04-13T03:33:44.338Z,6.2
2023-04-13T03:34:51.154Z,6.2
2023-04-13T03:35:57.939Z,6.3
2023-04-13T03:37:04.757Z,6.2
2023-04-13T03:38:11.669Z,6.2
2023-04-13T03:39:18.554Z,6.1
2023-04-13T03:40:25.479Z,6.1
2023-04-13T03:41:32.257Z,6.1
2023-04-13T03:42:39.048Z,6
2023-04-13T03:43:45.879Z,6
2023-04-13T03:44:52.742Z,5.9
2023-04-13T03:45:59.652Z,5.9
2023-04-13T03:47:06.506Z,5.9
2023-04-13T03:48:13.347Z,6
2023-04-13T03:49:20.163Z,6
2023-04-13T03:50:27.143Z,6
2023-04-13T03:51:33.959Z,6.1
2023-04-13T03:52:41.009Z,6
2023-04-13T03:53:47.795Z,6
2023-04-13T03:54:54.804Z,5.9
2023-04-13T03:56:01.645Z,5.9
2023-04-13T03:57:08.853Z,5.9
2023-04-13T03:58:15.692Z,5.8
2023-04-13T03:59:22.527Z,5.9
2023-04-13T04:00:29.406Z,5.9
2023-04-13T04:01:39.346Z,5.8
2023-04-13T04:02:49.130Z,5.8
2023-04-13T04:03:56.020Z,5.9
2023-04-13T04:05:02.806Z,5.9
2023-04-13T04:06:09.858Z,5.9
2023-04-13T04:07:16.729Z,5.9
2023-04-13T04:08:23.520Z,5.9
2023-04-13T04:09:30.409Z,5.9
2023-04-13T04:10:37.436Z,6
2023-04-13T04:11:44.272Z,6
2023-04-13T04:12:51.175Z,6
2023-04-13T04:13:58.121Z,6
2023-04-13T04:15:04.809Z,6.1
2023-04-13T04:16:11.987Z,6.1
2023-04-13T04:17:18.777Z,6.1
2023-04-13T04:18:25.684Z,6.1
2023-04-13T04:19:32.511Z,6.1
2023-04-13T04:20:39.360Z,6.1
2023-04-13T04:21:46.334Z,6.1
2023-04-13T04:22:53.205Z,6.1
2023-04-13T04:24:00.326Z,6.2
2023-04-13T04:25:07.022Z,6.2
2023-04-13T04:26:13.815Z,6.2
2023-04-13T04:27:20.868Z,6.2
2023-04-13T04:28:27.677Z,6.2
2023-04-13T04:29:34.696Z,6.2
2023-04-13T04:30:41.457Z,6.2
2023-04-13T04:31:48.350Z,6.2
2023-04-13T04:32:55.253Z,6.3
2023-04-13T04:34:02.194Z,6.3
2023-04-13T04:35:08.997Z,6.3
2023-04-13T04:36:15.872Z,6.3
2023-04-13T04:37:22.704Z,6.3
2023-04-13T04:38:29.524Z,6.3
2023-04-13T04:39:36.387Z,6.4
2023-04-13T04:40:43.290Z,6.4
2023-04-13T04:41:50.154Z,6.4
2023-04-13T04:42:59.980Z,6.4
2023-04-13T04:44:06.836Z,6.4
2023-04-13T04:45:13.765Z,6.4
2023-04-13T04:46:20.758Z,6.5
2023-04-13T04:47:27.634Z,6.5
2023-04-13T04:48:34.492Z,6.5
2023-04-13T04:49:41.437Z,6.5
2023-04-13T04:50:48.220Z,6.5
2023-04-13T04:51:55.107Z,6.4
2023-04-13T04:53:01.966Z,6.4
2023-04-13T04:54:08.775Z,6.4
2023-04-13T04:55:15.643Z,6.5
2023-04-13T04:56:22.454Z,6.6
2023-04-13T04:57:29.773Z,6.6
2023-04-13T04:58:36.280Z,6.6
2023-04-13T04:59:43.172Z,6.7
2023-04-13T05:00:50.018Z,6.7
2023-04-13T05:01:56.840Z,6.8
2023-04-13T05:03:03.697Z,6.8
2023-04-13T05:04:10.489Z,6.8
2023-04-13T05:05:17.414Z,6.8
2023-04-13T05:06:24.155Z,6.8
2023-04-13T05:07:30.945Z,6.9
2023-04-13T05:08:37.875Z,6.9
2023-04-13T05:09:44.763Z,6.9
2023-04-13T05:10:51.594Z,7
2023-04-13T05:11:58.389Z,7
2023-04-13T05:13:05.249Z,7
2023-04-13T05:14:12.224Z,7
2023-04-13T05:15:20.060Z,7.1
2023-04-13T05:16:26.994Z,7.1
2023-04-13T05:17:33.824Z,7.1
2023-04-13T05:18:40.607Z,7.2
2023-04-13T05:19:47.481Z,7.2
2023-04-13T05:20:54.494Z,7.2
2023-04-13T05:22:01.253Z,7.2
2023-04-13T05:23:08.060Z,7.2
2023-04-13T05:24:14.815Z,6.8
2023-04-13T05:25:21.697Z,6.7
2023-04-13T05:26:28.491Z,6.8
2023-04-13T05:27:35.468Z,6.9
2023-04-13T05:28:42.295Z,7
2023-04-13T05:29:49.100Z,7.1
2023-04-13T05:30:55.912Z,7.2
2023-04-13T05:32:08.081Z,7.2
2023-04-13T05:33:14.772Z,7.3
2023-04-13T05:34:21.553Z,7.3
2023-04-13T05:35:28.444Z,7.3
2023-04-13T05:36:35.339Z,7.4
2023-04-13T05:37:42.095Z,7.4
2023-04-13T05:38:49.044Z,7.4
2023-04-13T05:39:55.842Z,7.4
2023-04-13T05:41:02.783Z,7.5
2023-04-13T05:42:09.646Z,7.5
2023-04-13T05:43:16.434Z,7.5
2023-04-13T05:44:23.395Z,7.5
2023-04-13T05:45:30.298Z,7.6
2023-04-13T05:46:37.119Z,7.7
2023-04-13T05:47:43.948Z,7.7
2023-04-13T05:48:50.746Z,7.7
2023-04-13T05:49:57.665Z,7.8
2023-04-13T05:51:04.615Z,7.7
2023-04-13T05:52:11.455Z,7.8
2023-04-13T05:53:18.280Z,7.9
2023-04-13T05:54:25.114Z,7.9
2023-04-13T05:55:32.002Z,8
2023-04-13T05:56:38.887Z,8
2023-04-13T05:57:45.674Z,7.9
2023-04-13T05:58:52.508Z,7.7
2023-04-13T05:59:59.320Z,7.8
2023-04-13T06:01:06.313Z,7.9
2023-04-13T06:02:13.268Z,8
2023-04-13T06:03:20.225Z,8.1
2023-04-13T06:04:27.063Z,8.2
2023-04-13T06:05:33.672Z,8.2
2023-04-13T06:06:40.532Z,8.3
2023-04-13T06:07:47.525Z,8.4
2023-04-13T06:08:54.435Z,8.5
2023-04-13T06:10:01.293Z,8.5
2023-04-13T06:11:08.349Z,8.5
2023-04-13T06:12:15.197Z,8.6
2023-04-13T06:13:22.027Z,8.7
2023-04-13T06:14:28.831Z,8.8
2023-04-13T06:15:38.204Z,9
2023-04-13T06:16:42.674Z,9.1
2023-04-13T06:17:49.695Z,9.2
2023-04-13T06:18:56.531Z,9.3
2023-04-13T06:20:03.254Z,9.4
2023-04-13T06:21:10.448Z,9.5
2023-04-13T06:22:17.264Z,9.6
2023-04-13T06:23:24.254Z,9.7
2023-04-13T06:24:30.999Z,9.8
2023-04-13T06:25:37.704Z,9.9
2023-04-13T06:26:44.562Z,9.7
2023-04-13T06:27:51.435Z,9.5
2023-04-13T06:28:58.590Z,9.3
2023-04-13T06:30:05.085Z,9.4
2023-04-13T06:31:13.476Z,9.4
2023-04-13T06:32:18.983Z,9.5
2023-04-13T06:33:25.773Z,9.7
2023-04-13T06:34:32.704Z,9.7
2023-04-13T06:35:39.598Z,9.8
2023-04-13T06:36:46.401Z,9.7
2023-04-13T06:37:54.234Z,9.9
2023-04-13T06:39:03.883Z,10
2023-04-13T06:40:10.706Z,10.1
2023-04-13T06:41:17.600Z,10
2023-04-13T06:42:24.465Z,10.1
2023-04-13T06:43:31.248Z,10
2023-04-13T06:44:38.150Z,10
2023-04-13T06:45:45.071Z,10
2023-04-13T06:46:51.974Z,10.1
2023-04-13T06:47:59.004Z,10.3
2023-04-13T06:49:05.785Z,10.4
2023-04-13T06:50:12.597Z,10.6
2023-04-13T06:51:19.452Z,10.4
2023-04-13T06:52:26.366Z,10.5
2023-04-13T06:53:33.484Z,10.4
2023-04-13T06:54:40.351Z,10.6
2023-04-13T06:55:47.629Z,10.6
2023-04-13T06:56:54.491Z,10.7
2023-04-13T06:58:01.595Z,10.7
2023-04-13T06:59:08.856Z,10.6
2023-04-13T07:00:28.693Z,10.7
2023-04-13T07:01:22.332Z,10.8
2023-04-13T07:02:29.194Z,11
2023-04-13T07:03:36.453Z,11.1
2023-04-13T07:04:43.024Z,11.1
2023-04-13T07:05:49.822Z,11.2
2023-04-13T07:06:56.647Z,11.3
2023-04-13T07:08:03.512Z,11.2
2023-04-13T07:09:10.339Z,11.4
2023-04-13T07:10:17.282Z,11.4
2023-04-13T07:11:25.422Z,11.6
2023-04-13T07:12:32.216Z,11.8
2023-04-13T07:13:38.975Z,11.6
2023-04-13T07:14:45.767Z,11.7
2023-04-13T07:15:52.772Z,11.6
2023-04-13T07:16:59.446Z,11.4
2023-04-13T07:18:06.334Z,11.5
2023-04-13T07:19:13.067Z,11.6
2023-04-13T07:20:19.888Z,11.8
2023-04-13T07:21:27.645Z,11.8
2023-04-13T07:22:34.570Z,11.8
2023-04-13T07:23:41.347Z,12.1
2023-04-13T07:24:48.116Z,12.3
2023-04-13T07:25:54.985Z,12.3
2023-04-13T07:27:01.857Z,12.5
2023-04-13T07:28:09.690Z,12.3
2023-04-13T07:29:16.467Z,12.5
2023-04-13T07:30:23.263Z,12.5
2023-04-13T07:31:30.097Z,12.3
2023-04-13T07:32:37.072Z,12.5
2023-04-13T07:33:43.986Z,12.6
2023-04-13T07:34:50.911Z,12.6
2023-04-13T07:35:57.778Z,12.6
2023-04-13T07:37:04.852Z,12.8
2023-04-13T07:38:11.895Z,12.7
2023-04-13T07:39:18.738Z,12.8
2023-04-13T07:40:25.656Z,12.8
2023-04-13T07:41:33.003Z,12.7
2023-04-13T07:42:39.826Z,13
2023-04-13T07:43:46.979Z,12.8
2023-04-13T07:44:53.914Z,12.6
2023-04-13T07:46:01.068Z,12.6
2023-04-13T07:47:14.207Z,12.6
2023-04-13T07:48:21.771Z,12.7
2023-04-13T07:49:28.646Z,12.6
2023-04-13T07:50:35.444Z,12.9
2023-04-13T07:51:44.916Z,12.9
2023-04-13T07:52:51.747Z,13
2023-04-13T07:53:58.680Z,12.9
2023-04-13T07:55:05.529Z,12.6
2023-04-13T07:56:12.408Z,12.9
2023-04-13T07:57:19.360Z,12.8
2023-04-13T07:58:26.186Z,12.9
2023-04-13T07:59:33.222Z,13
2023-04-13T08:00:40.062Z,13.2
2023-04-13T08:01:46.920Z,13.3
2023-04-13T08:02:53.816Z,13.4
2023-04-13T08:04:00.667Z,13.6
2023-04-13T08:06:14.572Z,13.9
2023-04-13T08:07:21.394Z,13.6
2023-04-13T08:08:28.237Z,13.3
2023-04-13T08:09:35.160Z,13.6
2023-04-13T08:10:42.179Z,13.8
2023-04-13T08:11:49.023Z,13.9
2023-04-13T08:12:55.955Z,13.9
2023-04-13T08:14:03.631Z,13.7
2023-04-13T08:15:10.361Z,13.3
2023-04-13T08:16:17.345Z,13.1
2023-04-13T08:17:24.108Z,13.2
2023-04-13T08:18:30.865Z,13.3
2023-04-13T08:19:37.690Z,13.2
2023-04-13T08:20:44.530Z,13.2
2023-04-13T08:21:51.591Z,13
2023-04-13T08:22:58.443Z,12.9
2023-04-13T08:24:06.265Z,12.9
2023-04-13T08:25:13.087Z,12.9
2023-04-13T08:26:20.040Z,13
2023-04-13T08:27:26.889Z,13.1
2023-04-13T08:28:33.785Z,13.2
2023-04-13T08:29:40.618Z,13.3
2023-04-13T08:30:47.458Z,13.2
2023-04-13T08:31:54.388Z,13.1
2023-04-13T08:33:02.364Z,13.2
2023-04-13T08:34:09.151Z,13
2023-04-13T08:35:15.976Z,12.9
2023-04-13T08:36:22.831Z,13.1
2023-04-13T08:37:29.691Z,13.5
2023-04-13T08:38:36.924Z,13.7
2023-04-13T08:39:43.484Z,14.1
2023-04-13T08:40:50.493Z,14.2
2023-04-13T08:41:57.221Z,14.1
2023-04-13T08:43:04.047Z,14.3
2023-04-13T08:44:10.931Z,14.4
2023-04-13T08:45:17.782Z,14.5
2023-04-13T08:46:24.673Z,14.5
2023-04-13T08:47:31.734Z,14.4
2023-04-13T08:48:50.333Z,14.3
2023-04-13T08:49:45.296Z,14.6
2023-04-13T08:50:52.107Z,14.6
2023-04-13T08:51:59.040Z,14.8
2023-04-13T08:53:05.908Z,14.8
2023-04-13T08:54:12.826Z,14.8
2023-04-13T08:55:19.592Z,15
2023-04-13T08:56:38.025Z,15.1
2023-04-13T08:57:33.431Z,15.2
2023-04-13T08:58:40.310Z,14.8
2023-04-13T08:59:47.232Z,15
2023-04-13T09:00:54.025Z,14.9
2023-04-13T09:02:00.894Z,14.9
2023-04-13T09:03:09.663Z,15.1
2023-04-13T09:04:15.540Z,15.2
2023-04-13T09:05:22.278Z,15.4
2023-04-13T09:06:29.055Z,15.5
2023-04-13T09:07:36.038Z,15.4
2023-04-13T09:08:42.904Z,15.5
2023-04-13T09:09:49.810Z,15.6
2023-04-13T09:10:59.446Z,15.5
2023-04-13T09:12:06.290Z,15.7
2023-04-13T09:13:13.178Z,15.7
2023-04-13T09:14:20.028Z,15.3
2023-04-13T09:15:27.002Z,15.3
2023-04-13T09:16:33.714Z,15.4
2023-04-13T09:17:43.732Z,15.6
2023-04-13T09:18:50.462Z,15.8
2023-04-13T09:19:57.279Z,16
2023-04-13T09:21:14.384Z,16.1
2023-04-13T09:22:22.046Z,16.2
2023-04-13T09:23:28.913Z,16
2023-04-13T09:24:35.843Z,15.9
2023-04-13T09:25:42.766Z,16.1
2023-04-13T09:26:49.502Z,16
2023-04-13T09:27:56.307Z,16.2
2023-04-13T09:29:03.252Z,16.2
2023-04-13T09:30:09.981Z,16.3
2023-04-13T09:31:17.008Z,16.2
2023-04-13T09:32:23.790Z,16.3
2023-04-13T09:33:30.574Z,16.4
2023-04-13T09:34:37.405Z,16.4
2023-04-13T09:35:44.350Z,16.3
2023-04-13T09:36:54.423Z,16.4
2023-04-13T09:37:58.042Z,16.4
2023-04-13T09:39:04.858Z,16.3
2023-04-13T09:40:11.736Z,16.4
2023-04-13T09:41:18.951Z,16.3
2023-04-13T09:42:31.094Z,16.3
2023-04-13T09:43:38.093Z,16.4
2023-04-13T09:44:44.961Z,16.5
2023-04-13T09:45:59.760Z,16.5
2023-04-13T09:47:06.698Z,16.6
2023-04-13T09:48:13.458Z,16.7
2023-04-13T09:49:20.214Z,16.8
2023-04-13T09:50:27.086Z,16.7
2023-04-13T09:51:33.935Z,16.6
2023-04-13T09:52:43.813Z,16.6
2023-04-13T09:53:50.610Z,16.3
2023-04-13T09:54:57.384Z,16.5
2023-04-13T09:56:04.341Z,16.8
2023-04-13T09:57:11.115Z,16.7
2023-04-13T09:58:18.074Z,16.7
2023-04-13T09:59:25.038Z,16.7
2023-04-13T10:00:31.840Z,16.9
2023-04-13T10:01:38.830Z,16.5
2023-04-13T10:02:45.839Z,16.3
2023-04-13T10:03:52.424Z,16.4
2023-04-13T10:04:59.233Z,16
2023-04-13T10:06:06.068Z,16.2
2023-04-13T10:07:12.887Z,16.2
2023-04-13T10:08:24.466Z,16.4
2023-04-13T10:09:26.676Z,16.3
2023-04-13T10:10:33.453Z,16.4
2023-04-13T10:11:40.262Z,16.1
2023-04-13T10:12:49.541Z,16.2
2023-04-13T10:13:59.624Z,16.3
2023-04-13T10:15:06.918Z,16.3
2023-04-13T10:16:24.149Z,16.2
2023-04-13T10:17:41.330Z,16.3
2023-04-13T10:18:53.687Z,15.7
2023-04-13T10:20:00.505Z,15.7
2023-04-13T10:21:13.081Z,15.2
2023-04-13T10:22:19.942Z,15.5
2023-04-13T10:23:28.098Z,15.7
2023-04-13T10:24:37.683Z,15.6
2023-04-13T10:25:44.650Z,15.6
2023-04-13T10:26:54.136Z,15.6
2023-04-13T10:28:01.000Z,15.5
2023-04-13T10:29:07.918Z,15.6
2023-04-13T10:30:14.793Z,15.6
2023-04-13T10:31:21.770Z,15.6
2023-04-13T10:32:38.791Z,15.5
2023-04-13T10:33:45.623Z,15.6
2023-04-13T10:34:54.718Z,15.7
2023-04-13T10:36:01.380Z,15.4
2023-04-13T10:37:08.477Z,15.5
2023-04-13T10:38:20.415Z,15.4
2023-04-13T10:39:27.265Z,15.5
2023-04-13T10:40:34.097Z,15.2
2023-04-13T10:41:46.273Z,15.3
2023-04-13T10:43:01.038Z,15.2
2023-04-13T10:44:07.984Z,15.4
2023-04-13T10:45:14.900Z,15.2
2023-04-13T10:46:29.581Z,15.3
2023-04-13T10:47:36.458Z,15.3
2023-04-13T10:48:43.331Z,15.4
2023-04-13T10:49:50.136Z,15.1
2023-04-13T10:50:56.985Z,15.2
2023-04-13T10:52:03.766Z,15.2
2023-04-13T10:53:10.633Z,15.2
2023-04-13T10:54:17.537Z,15.3
2023-04-13T10:55:24.438Z,15.3
2023-04-13T10:56:31.250Z,15.4
2023-04-13T10:57:38.076Z,15.3
2023-04-13T10:58:44.939Z,15.2
2023-04-13T10:59:57.701Z,15.3
2023-04-13T11:01:01.540Z,15.3
2023-04-13T11:02:08.355Z,15.4
2023-04-13T11:03:16.205Z,15.6
2023-04-13T11:04:22.146Z,15.6
2023-04-13T11:05:28.935Z,15.8
2023-04-13T11:06:35.723Z,15.8
2023-04-13T11:07:42.597Z,15.5
2023-04-13T11:08:49.566Z,15.8
2023-04-13T11:10:02.709Z,15.9
2023-04-13T11:11:03.312Z,15.8
2023-04-13T11:12:10.205Z,15.8
2023-04-13T11:13:22.382Z,15.7
2023-04-13T11:14:29.354Z,15.7
2023-04-13T11:15:37.001Z,15.7
2023-04-13T11:16:43.848Z,15.6
2023-04-13T11:17:50.619Z,15.4
2023-04-13T11:18:57.769Z,15.6
2023-04-13T11:20:04.586Z,15.5
2023-04-13T11:21:11.633Z,15.5
2023-04-13T11:22:18.476Z,15.5
2023-04-13T11:23:28.027Z,15.6
2023-04-13T11:24:34.985Z,15.6
2023-04-13T11:25:42.747Z,15.6
2023-04-13T11:26:57.811Z,15.4
2023-04-13T11:28:04.639Z,15.5
2023-04-13T11:29:12.330Z,15.5
2023-04-13T11:30:23.122Z,15.4
2023-04-13T11:31:30.012Z,15.5
2023-04-13T11:32:42.724Z,15.6
2023-04-13T11:33:49.458Z,15.5
2023-04-13T11:34:56.318Z,15.6
2023-04-13T11:36:11.536Z,15.6
2023-04-13T11:37:18.495Z,15.4
2023-04-13T11:38:25.470Z,15.3
2023-04-13T11:39:32.252Z,15.1
2023-04-13T11:40:39.206Z,15.2
2023-04-13T11:41:46.013Z,15.3
2023-04-13T11:42:52.807Z,15.2
2023-04-13T11:43:59.807Z,15.1
2023-04-13T11:45:06.717Z,15.2
2023-04-13T11:46:17.267Z,15.1
2023-04-13T11:47:27.497Z,15.2
2023-04-13T11:48:34.276Z,15.2
2023-04-13T11:49:41.147Z,15
2023-04-13T11:50:47.991Z,15
2023-04-13T11:51:54.865Z,14.9
2023-04-13T11:53:01.969Z,14.9
2023-04-13T11:54:08.703Z,14.8
2023-04-13T11:55:23.004Z,14.7
2023-04-13T11:56:23.475Z,14.6
2023-04-13T11:57:31.212Z,14.7
2023-04-13T11:58:38.240Z,14.7
2023-04-13T11:59:45.164Z,14.6
2023-04-13T12:00:52.070Z,14.5
2023-04-13T12:02:03.150Z,14.5
2023-04-13T12:04:16.736Z,14.3
2023-04-13T12:05:23.432Z,14.4
2023-04-13T12:06:33.138Z,14.5
2023-04-13T12:07:39.984Z,14.4
2023-04-13T12:08:53.190Z,14.4
2023-04-13T12:09:58.463Z,14.3
2023-04-13T12:12:46.086Z,14.3
2023-04-13T12:13:33.472Z,14.3
2023-04-13T12:14:47.986Z,14.2
2023-04-13T12:15:43.846Z,14
2023-04-13T12:17:57.213Z,13.9
2023-04-13T12:18:58.340Z,14
2023-04-13T12:20:10.230Z,13.8
2023-04-13T12:21:17.159Z,13.7
2023-04-13T12:22:23.873Z,13.7
2023-04-13T12:23:41.152Z,13.7
2023-04-13T12:24:56.855Z,13.7
2023-04-13T12:26:18.725Z,13.7
2023-04-13T12:27:16.773Z,13.4
2023-04-13T12:28:16.713Z,13.4
2023-04-13T12:29:23.585Z,13.2
2023-04-13T12:30:30.389Z,13.3
2023-04-13T12:31:37.263Z,13.5
2023-04-13T12:32:44.093Z,13.5
2023-04-13T12:33:53.648Z,13.3
2023-04-13T12:35:00.450Z,13.3
2023-04-13T12:36:07.415Z,13.1
2023-04-13T12:37:16.087Z,13.1
2023-04-13T12:38:22.854Z,13.2
2023-04-13T12:39:31.134Z,13
2023-04-13T12:40:37.955Z,13
2023-04-13T12:41:44.825Z,13
2023-04-13T12:42:51.685Z,12.9
2023-04-13T12:43:58.549Z,12.9
2023-04-13T12:45:08.018Z,12.9
2023-04-13T12:46:15.016Z,12.9
2023-04-13T12:47:22.061Z,12.7
2023-04-13T12:48:28.823Z,12.8
2023-04-13T12:49:35.819Z,12.9
2023-04-13T12:50:43.451Z,13
2023-04-13T12:51:50.425Z,12.8
2023-04-13T12:52:57.288Z,12.8
2023-04-13T12:54:04.249Z,12.7
2023-04-13T12:55:12.517Z,12.7
2023-04-13T12:56:19.380Z,12.7
2023-04-13T12:57:26.429Z,12.4
2023-04-13T12:58:34.989Z,12.2
2023-04-13T12:59:41.902Z,12.3
2023-04-13T13:00:48.853Z,12.2
2023-04-13T13:01:55.700Z,12.3
2023-04-13T13:03:13.292Z,12.2
2023-04-13T13:04:11.572Z,12.2
2023-04-13T13:05:18.333Z,12.2
2023-04-13T13:06:25.261Z,12.3
2023-04-13T13:07:32.139Z,12.3
2023-04-13T13:08:40.332Z,12.3
2023-04-13T13:09:45.787Z,12.3
2023-04-13T13:10:52.529Z,12.4
2023-04-13T13:11:59.473Z,12.4
2023-04-13T13:13:06.369Z,12.5
2023-04-13T13:14:13.150Z,12.3
2023-04-13T13:15:20.832Z,12.4
2023-04-13T13:16:27.736Z,12.3
2023-04-13T13:17:35.142Z,11.6
2023-04-13T13:18:50.745Z,11.4
2023-04-13T13:19:51.413Z,11.5
2023-04-13T13:20:58.340Z,11.7
2023-04-13T13:22:05.180Z,11.8
2023-04-13T13:23:12.118Z,11.7
2023-04-13T13:24:18.956Z,11.7
2023-04-13T13:25:25.964Z,11.6
2023-04-13T13:26:53.089Z,11.6
2023-04-13T13:28:10.003Z,11.6
2023-04-13T13:28:49.484Z,11.6
2023-04-13T13:29:56.364Z,11.6
2023-04-13T13:31:03.265Z,11.6
2023-04-13T13:32:10.351Z,11.6
2023-04-13T13:33:17.312Z,11.5
2023-04-13T13:34:24.087Z,11.3
2023-04-13T13:35:30.996Z,11.5
2023-04-13T13:36:37.892Z,11.2
2023-04-13T13:37:44.906Z,11.1
2023-04-13T13:38:51.792Z,11.2
2023-04-13T13:39:58.691Z,11.4
2023-04-13T13:41:05.456Z,11.3
2023-04-13T13:42:12.228Z,11.1
2023-04-13T13:43:19.200Z,11.3
2023-04-13T13:44:26.024Z,11.3
2023-04-13T13:45:32.920Z,11.3
2023-04-13T13:46:39.759Z,11.4
2023-04-13T13:47:46.621Z,11.3
2023-04-13T13:48:53.535Z,11.3
2023-04-13T13:50:00.355Z,11.1
2023-04-13T13:51:07.896Z,10.8
2023-04-13T13:52:14.237Z,10.7
2023-04-13T13:53:21.043Z,10.6
2023-04-13T13:54:27.935Z,11.1
2023-04-13T13:55:34.972Z,11.1
2023-04-13T13:56:42.779Z,11
2023-04-13T13:57:49.613Z,10.8
2023-04-13T13:58:56.445Z,10.9
2023-04-13T14:00:03.354Z,10.7
2023-04-13T14:01:15.788Z,10.7
2023-04-13T14:02:23.925Z,10.8
2023-04-13T14:03:33.810Z,10.9
2023-04-13T14:04:40.947Z,10.9
2023-04-13T14:05:47.803Z,11
2023-04-13T14:06:54.652Z,10.9
2023-04-13T14:08:01.478Z,11
2023-04-13T14:09:08.502Z,11.1
2023-04-13T14:10:15.454Z,11.2
2023-04-13T14:11:22.369Z,11.1
2023-04-13T14:12:29.265Z,11
2023-04-13T14:13:36.159Z,11
2023-04-13T14:14:43.040Z,10.8
2023-04-13T14:15:49.990Z,10.7
2023-04-13T14:16:57.562Z,10.7
2023-04-13T14:18:10.232Z,10.5
2023-04-13T14:19:11.413Z,10.4
2023-04-13T14:20:18.245Z,10.5
2023-04-13T14:21:25.169Z,10.4
2023-04-13T14:22:32.094Z,10.5
2023-04-13T14:23:41.685Z,10.7
2023-04-13T14:24:48.595Z,10.9
2023-04-13T14:25:55.452Z,10.9
2023-04-13T14:27:02.340Z,10.9
2023-04-13T14:28:09.519Z,10.5
2023-04-13T14:29:16.180Z,10.6
2023-04-13T14:30:23.974Z,10.5
2023-04-13T14:31:34.096Z,10.3
2023-04-13T14:32:43.648Z,10.4
2023-04-13T14:33:52.752Z,10.4
2023-04-13T14:34:59.632Z,9.8
2023-04-13T14:36:06.872Z,9.9
2023-04-13T14:37:13.810Z,9.9
2023-04-13T14:38:22.976Z,10
2023-04-13T14:39:29.924Z,10.2
2023-04-13T14:40:36.775Z,10.1
2023-04-13T14:41:43.623Z,10.1
2023-04-13T14:42:50.430Z,10
2023-04-13T14:43:57.211Z,10.1
2023-04-13T14:45:05.286Z,10.1
2023-04-13T14:46:12.485Z,10
2023-04-13T14:47:19.596Z,9.9
2023-04-13T14:48:28.518Z,10
2023-04-13T14:49:35.402Z,10.1
2023-04-13T14:50:42.300Z,10.2
2023-04-13T14:51:52.437Z,10.2
2023-04-13T14:52:59.431Z,9.9
2023-04-13T14:54:11.542Z,10
2023-04-13T14:55:20.750Z,10
2023-04-13T14:56:28.938Z,9.9
2023-04-13T14:57:35.856Z,9.9
2023-04-13T14:58:42.892Z,9.8
2023-04-13T14:59:49.800Z,9.8
2023-04-13T15:00:56.749Z,9.8
2023-04-13T15:02:04.228Z,9.8
2023-04-13T15:03:14.477Z,10.1
2023-04-13T15:04:21.727Z,10
2023-04-13T15:05:28.439Z,10
2023-04-13T15:06:43.723Z,9.9
2023-04-13T15:07:50.925Z,10
2023-04-13T15:08:58.241Z,10.1
2023-04-13T15:10:04.734Z,10.1
2023-04-13T15:11:14.377Z,10.2
2023-04-13T15:12:21.306Z,9.9
2023-04-13T15:13:30.501Z,10
2023-04-13T15:14:37.449Z,9.9
2023-04-13T15:15:44.464Z,10.1
2023-04-13T15:16:53.553Z,10
2023-04-13T15:18:02.537Z,10
2023-04-13T15:19:07.575Z,9.9
2023-04-13T15:20:14.482Z,10
2023-04-13T15:21:22.806Z,10.1
2023-04-13T15:22:29.844Z,10